createdAt,value
2017-12-22T00:02:14.738Z,28.60
2017-12-22T00:04:43.024Z,25.40
2017-12-22T00:07:11.317Z,25.22
2017-12-22T00:09:39.562Z,22.36
2017-12-22T00:12:07.807Z,25.50
2017-12-22T00:14:36.119Z,24.98
2017-12-22T00:17:04.365Z,24.30
2017-12-22T00:19:32.637Z,23.06
2017-12-22T00:22:02.286Z,22.74
2017-12-22T00:24:30.551Z,22.18
2017-12-22T00:26:58.826Z,22.98
2017-12-22T00:29:27.102Z,20.58
2017-12-22T00:31:55.383Z,22.62
2017-12-22T00:34:23.618Z,21.78
2017-12-22T00:36:51.909Z,20.46
2017-12-22T00:39:20.166Z,20.72
2017-12-22T00:41:48.411Z,21.96
2017-12-22T00:44:16.690Z,18.14
2017-12-22T00:46:44.170Z,20.06
2017-12-22T00:49:12.450Z,18.30
2017-12-22T00:51:40.695Z,19.26
2017-12-22T00:54:08.978Z,19.48
2017-12-22T00:56:37.237Z,18.84
2017-12-22T00:59:05.482Z,19.92
2017-12-22T01:01:33.755Z,21.40
2017-12-22T01:04:03.314Z,20.08
2017-12-22T01:06:32.461Z,19.82
2017-12-22T01:09:01.469Z,21.22
2017-12-22T01:11:29.746Z,21.38
2017-12-22T01:13:57.981Z,20.86
2017-12-22T01:16:31.873Z,20.60
2017-12-22T01:19:05.690Z,23.42
2017-12-22T01:21:33.965Z,22.82
2017-12-22T01:24:04.073Z,21.64
2017-12-22T01:26:33.529Z,23.30
2017-12-22T01:29:03.951Z,21.52
2017-12-22T01:31:33.613Z,22.76
2017-12-22T01:34:02.853Z,22.60
2017-12-22T01:36:32.137Z,19.00
2017-12-22T01:39:01.803Z,23.46
2017-12-22T01:41:30.066Z,23.92
2017-12-22T01:43:58.339Z,22.30
2017-12-22T01:46:26.609Z,25.10
2017-12-22T01:48:54.850Z,28.90
2017-12-22T01:51:23.131Z,22.44
2017-12-22T01:53:51.369Z,23.22
2017-12-22T01:56:19.641Z,23.72
2017-12-22T01:58:47.885Z,21.10
2017-12-22T02:01:16.155Z,19.06
2017-12-22T02:03:44.401Z,19.00
2017-12-22T02:06:12.681Z,18.84
2017-12-22T02:08:40.953Z,20.62
2017-12-22T02:11:09.205Z,20.28
2017-12-22T02:13:37.478Z,20.20
2017-12-22T02:16:05.725Z,20.68
2017-12-22T02:18:34.004Z,23.46
2017-12-22T02:21:08.201Z,21.40
2017-12-22T02:23:36.475Z,22.26
2017-12-22T02:26:04.754Z,25.98
2017-12-22T02:28:32.993Z,21.92
2017-12-22T02:31:01.270Z,23.98
2017-12-22T02:33:29.518Z,19.98
2017-12-22T02:35:57.770Z,32.34
2017-12-22T02:38:26.059Z,23.74
2017-12-22T02:40:54.302Z,25.10
2017-12-22T02:43:21.793Z,20.20
2017-12-22T02:45:49.302Z,21.24
2017-12-22T02:48:17.596Z,21.76
2017-12-22T02:50:45.872Z,23.50
2017-12-22T02:53:14.155Z,22.34
2017-12-22T02:55:42.425Z,19.76
2017-12-22T02:58:10.671Z,19.80
2017-12-22T03:00:38.966Z,17.68
2017-12-22T03:03:07.218Z,19.54
2017-12-22T03:05:35.471Z,20.22
2017-12-22T03:08:03.751Z,19.66
2017-12-22T03:10:33.965Z,19.14
2017-12-22T03:13:02.968Z,17.20
2017-12-22T03:15:31.643Z,16.90
2017-12-22T03:17:59.905Z,16.84
2017-12-22T03:20:28.178Z,14.74
2017-12-22T03:22:56.422Z,15.18
2017-12-22T03:25:24.674Z,13.36
2017-12-22T03:27:52.938Z,15.72
2017-12-22T03:30:21.215Z,16.10
2017-12-22T03:32:49.466Z,14.50
2017-12-22T03:35:16.978Z,13.48
2017-12-22T03:37:45.226Z,14.76
2017-12-22T03:40:15.479Z,13.74
2017-12-22T03:42:43.725Z,13.54
2017-12-22T03:45:11.970Z,12.90
2017-12-22T03:47:40.238Z,13.76
2017-12-22T03:50:11.529Z,13.00
2017-12-22T03:52:39.803Z,14.62
2017-12-22T03:55:08.050Z,13.06
2017-12-22T03:57:36.356Z,11.94
2017-12-22T04:00:07.725Z,13.30
2017-12-22T04:02:36.002Z,13.56
2017-12-22T04:05:04.292Z,12.68
2017-12-22T04:07:32.556Z,12.82
2017-12-22T04:10:03.022Z,14.32
2017-12-22T04:12:31.283Z,13.34
2017-12-22T04:14:59.530Z,12.12
2017-12-22T04:17:27.806Z,11.42
2017-12-22T04:19:56.078Z,11.66
2017-12-22T04:22:24.326Z,11.66
2017-12-22T04:24:52.612Z,11.04
2017-12-22T04:27:20.891Z,12.28
2017-12-22T04:29:49.136Z,9.64
2017-12-22T04:32:17.414Z,11.36
2017-12-22T04:34:45.653Z,10.86
2017-12-22T04:37:13.923Z,11.50
2017-12-22T04:39:41.442Z,10.22
2017-12-22T04:42:09.692Z,11.08
2017-12-22T04:44:37.938Z,11.12
2017-12-22T04:47:06.205Z,10.56
2017-12-22T04:49:34.451Z,10.80
2017-12-22T04:52:02.726Z,10.04
2017-12-22T04:54:32.578Z,11.34
2017-12-22T04:57:01.310Z,10.92
2017-12-22T04:59:29.555Z,9.72
2017-12-22T05:01:57.834Z,9.84
2017-12-22T05:04:26.084Z,10.10
2017-12-22T05:06:54.373Z,10.00
2017-12-22T05:09:22.650Z,9.14
2017-12-22T05:11:50.895Z,8.48
2017-12-22T05:14:19.161Z,11.12
2017-12-22T05:16:47.401Z,10.00
2017-12-22T05:19:15.682Z,9.58
2017-12-22T05:21:43.927Z,10.62
2017-12-22T05:24:12.176Z,9.58
2017-12-22T05:26:40.454Z,8.06
2017-12-22T05:29:08.738Z,8.58
2017-12-22T05:31:36.978Z,7.90
2017-12-22T05:34:05.228Z,8.52
2017-12-22T05:36:32.754Z,7.54
2017-12-22T05:39:02.128Z,9.34
2017-12-22T05:41:31.136Z,8.04
2017-12-22T05:43:59.397Z,8.62
2017-12-22T05:46:27.672Z,9.10
2017-12-22T05:48:55.905Z,8.36
2017-12-22T05:51:24.146Z,8.32
2017-12-22T05:53:52.418Z,7.24
2017-12-22T05:56:20.668Z,7.14
2017-12-22T05:58:48.942Z,7.60
2017-12-22T06:01:17.231Z,7.06
2017-12-22T06:03:45.516Z,6.92
2017-12-22T06:06:13.800Z,6.94
2017-12-22T06:08:42.091Z,7.32
2017-12-22T06:11:10.380Z,7.50
2017-12-22T06:13:38.635Z,7.44
2017-12-22T06:16:06.911Z,7.22
2017-12-22T06:18:35.154Z,7.52
2017-12-22T06:21:03.425Z,7.54
2017-12-22T06:23:32.879Z,8.34
2017-12-22T06:26:02.168Z,8.40
2017-12-22T06:28:30.420Z,7.32
2017-12-22T06:30:58.673Z,8.46
2017-12-22T06:33:26.970Z,7.62
2017-12-22T06:35:55.216Z,7.24
2017-12-22T06:38:23.457Z,7.48
2017-12-22T06:40:51.730Z,8.20
2017-12-22T06:43:19.976Z,9.70
2017-12-22T06:45:48.271Z,8.42
2017-12-22T06:48:16.516Z,8.04
2017-12-22T06:50:44.769Z,10.68
2017-12-22T06:53:13.039Z,8.54
2017-12-22T06:55:41.285Z,8.84
2017-12-22T06:58:09.572Z,9.02
2017-12-22T07:00:37.819Z,9.62
2017-12-22T07:03:06.058Z,9.92
2017-12-22T07:05:34.352Z,10.12
2017-12-22T07:08:02.599Z,7.84
2017-12-22T07:10:36.735Z,8.96
2017-12-22T07:13:04.992Z,8.24
2017-12-22T07:15:33.244Z,8.54
2017-12-22T07:18:02.886Z,6.76
2017-12-22T07:20:31.966Z,7.46
2017-12-22T07:23:01.072Z,7.68
2017-12-22T07:25:29.315Z,7.60
2017-12-22T07:27:57.604Z,6.64
2017-12-22T07:30:25.930Z,8.08
2017-12-22T07:32:54.138Z,7.24
2017-12-22T07:35:22.416Z,7.96
2017-12-22T07:37:50.676Z,7.40
2017-12-22T07:40:18.980Z,7.32
2017-12-22T07:42:47.216Z,6.42
2017-12-22T07:45:15.457Z,6.46
2017-12-22T07:47:43.738Z,6.92
2017-12-22T07:50:11.989Z,5.50
2017-12-22T07:52:40.244Z,6.78
2017-12-22T07:55:08.573Z,7.16
2017-12-22T07:57:36.808Z,7.14
2017-12-22T08:00:08.682Z,8.46
2017-12-22T08:02:36.923Z,8.60
2017-12-22T08:05:05.202Z,7.80
2017-12-22T08:07:33.442Z,6.96
2017-12-22T08:10:03.683Z,8.22
2017-12-22T08:12:32.688Z,7.10
2017-12-22T08:15:00.980Z,6.36
2017-12-22T08:17:29.682Z,6.92
2017-12-22T08:19:57.960Z,5.60
2017-12-22T08:22:26.200Z,7.72
2017-12-22T08:24:54.479Z,7.58
2017-12-22T08:27:22.734Z,8.10
2017-12-22T08:29:51.022Z,8.70
2017-12-22T08:32:19.278Z,8.20
2017-12-22T08:34:47.537Z,10.74
2017-12-22T08:37:15.802Z,12.08
2017-12-22T08:39:44.062Z,12.88
2017-12-22T08:42:12.342Z,13.88
2017-12-22T08:44:40.601Z,13.60
2017-12-22T08:47:08.856Z,10.86
2017-12-22T08:49:37.129Z,12.60
2017-12-22T08:52:05.391Z,12.04
2017-12-22T08:54:33.670Z,12.22
2017-12-22T08:57:02.711Z,10.40
2017-12-22T08:59:30.981Z,9.82
2017-12-22T09:01:59.236Z,9.48
2017-12-22T09:04:27.502Z,9.42
2017-12-22T09:06:55.777Z,10.50
2017-12-22T09:09:24.064Z,10.74
2017-12-22T09:11:52.343Z,9.44
2017-12-22T09:14:20.617Z,10.04
2017-12-22T09:16:48.858Z,9.90
2017-12-22T09:19:17.101Z,9.24
2017-12-22T09:21:45.379Z,8.22
2017-12-22T09:24:13.653Z,9.80
2017-12-22T09:26:41.898Z,9.94
2017-12-22T09:29:10.175Z,9.04
2017-12-22T09:31:38.466Z,10.28
2017-12-22T09:34:06.719Z,11.24
2017-12-22T09:36:34.990Z,12.04
2017-12-22T09:39:04.855Z,11.26
2017-12-22T09:41:34.494Z,9.90
2017-12-22T09:44:03.575Z,9.42
2017-12-22T09:46:33.208Z,9.52
2017-12-22T09:49:01.515Z,8.82
2017-12-22T09:51:29.776Z,9.62
2017-12-22T09:53:58.060Z,10.44
2017-12-22T09:56:26.334Z,8.82
2017-12-22T09:58:54.570Z,8.90
2017-12-22T10:01:22.830Z,8.46
2017-12-22T10:03:51.073Z,9.16
2017-12-22T10:06:19.363Z,8.88
2017-12-22T10:08:47.652Z,9.32
2017-12-22T10:11:15.907Z,10.94
2017-12-22T10:13:44.156Z,8.70
2017-12-22T10:16:12.435Z,9.60
2017-12-22T10:18:40.666Z,8.76
2017-12-22T10:21:08.942Z,9.50
2017-12-22T10:23:37.176Z,9.92
2017-12-22T10:26:05.428Z,9.84
2017-12-22T10:28:33.708Z,8.62
2017-12-22T10:31:02.835Z,11.30
2017-12-22T10:33:31.838Z,9.46
2017-12-22T10:36:00.114Z,9.34
2017-12-22T10:38:28.368Z,10.06
2017-12-22T10:40:56.743Z,9.48
2017-12-22T10:43:24.996Z,7.98
2017-12-22T10:45:53.238Z,8.76
2017-12-22T10:48:21.527Z,10.22
2017-12-22T10:50:50.606Z,8.76
2017-12-22T10:53:18.860Z,8.54
2017-12-22T10:55:47.138Z,8.68
2017-12-22T10:58:15.379Z,7.98
2017-12-22T11:00:43.646Z,7.18
2017-12-22T11:03:11.891Z,7.00
2017-12-22T11:05:40.168Z,7.30
2017-12-22T11:08:08.419Z,7.72
2017-12-22T11:10:36.696Z,8.42
2017-12-22T11:13:04.980Z,8.16
2017-12-22T11:15:39.287Z,7.72
2017-12-22T11:18:07.557Z,7.78
2017-12-22T11:20:36.735Z,8.58
2017-12-22T11:23:04.992Z,8.50
2017-12-22T11:25:39.526Z,8.56
2017-12-22T11:28:07.775Z,8.94
2017-12-22T11:30:36.027Z,8.94
2017-12-22T11:33:04.285Z,10.30
2017-12-22T11:35:33.612Z,12.58
2017-12-22T11:38:03.079Z,12.40
2017-12-22T11:40:32.231Z,15.14
2017-12-22T11:43:00.483Z,15.14
2017-12-22T11:45:28.773Z,16.30
2017-12-22T11:47:56.242Z,18.00
2017-12-22T11:50:24.497Z,18.14
2017-12-22T11:52:52.761Z,17.44
2017-12-22T11:55:21.046Z,19.04
2017-12-22T11:57:49.326Z,19.92
2017-12-22T12:00:17.584Z,20.36
2017-12-22T12:02:45.863Z,18.62
2017-12-22T12:05:14.111Z,20.76
2017-12-22T12:07:42.394Z,21.60
2017-12-22T12:10:10.637Z,19.98
2017-12-22T12:12:38.890Z,18.90
2017-12-22T12:15:10.313Z,20.94
2017-12-22T12:17:38.567Z,16.84
2017-12-22T12:20:07.706Z,15.80
2017-12-22T12:22:35.985Z,15.90
2017-12-22T12:25:03.467Z,15.84
2017-12-22T12:27:32.806Z,16.48
2017-12-22T12:30:02.975Z,14.72
2017-12-22T12:32:31.932Z,15.28
2017-12-22T12:35:00.178Z,15.36
2017-12-22T12:37:28.441Z,14.82
2017-12-22T12:39:56.687Z,13.76
2017-12-22T12:42:24.970Z,14.44
2017-12-22T12:44:53.218Z,15.12
2017-12-22T12:47:21.494Z,15.12
2017-12-22T12:49:49.778Z,15.60
2017-12-22T12:52:18.038Z,12.48
2017-12-22T12:54:47.331Z,13.86
2017-12-22T12:57:15.598Z,16.16
2017-12-22T12:59:43.860Z,14.30
2017-12-22T13:02:12.156Z,13.88
2017-12-22T13:04:40.437Z,15.08
2017-12-22T13:07:08.700Z,13.94
2017-12-22T13:09:37.916Z,13.78
2017-12-22T13:12:06.207Z,16.94
2017-12-22T13:14:34.475Z,13.32
2017-12-22T13:17:03.947Z,13.72
2017-12-22T13:19:34.226Z,13.30
2017-12-22T13:22:03.196Z,14.58
2017-12-22T13:24:32.466Z,11.92
2017-12-22T13:27:00.755Z,15.14
2017-12-22T13:29:29.000Z,13.28
2017-12-22T13:31:57.301Z,13.38
2017-12-22T13:34:30.374Z,15.42
2017-12-22T13:36:58.664Z,14.06
2017-12-22T13:39:30.561Z,14.54
2017-12-22T13:41:58.852Z,14.96
2017-12-22T13:44:27.102Z,15.12
2017-12-22T13:46:55.347Z,16.94
2017-12-22T13:49:24.551Z,14.08
2017-12-22T13:51:52.812Z,13.84
2017-12-22T13:54:22.083Z,22.28
2017-12-22T13:56:49.562Z,17.28
2017-12-22T13:59:22.998Z,13.44
2017-12-22T14:01:51.267Z,15.02
2017-12-22T14:04:19.514Z,12.28
2017-12-22T14:06:47.806Z,15.02
2017-12-22T14:09:16.099Z,15.40
2017-12-22T14:11:45.322Z,26.76
2017-12-22T14:14:13.598Z,17.18
2017-12-22T14:16:42.817Z,17.80
2017-12-22T14:19:11.094Z,21.08
2017-12-22T14:21:39.470Z,15.18
2017-12-22T14:24:07.726Z,14.88
2017-12-22T14:26:35.974Z,14.24
2017-12-22T14:29:03.497Z,15.48
2017-12-22T14:31:33.104Z,16.44
2017-12-22T14:34:01.428Z,15.82
2017-12-22T14:36:29.696Z,13.56
2017-12-22T14:38:57.952Z,14.58
2017-12-22T14:41:26.231Z,14.72
2017-12-22T14:43:54.491Z,15.02
2017-12-22T14:46:22.762Z,15.46
2017-12-22T14:48:51.042Z,15.00
2017-12-22T14:51:19.333Z,16.08
2017-12-22T14:53:47.588Z,16.64
2017-12-22T14:56:15.834Z,18.72
2017-12-22T14:58:44.122Z,20.40
2017-12-22T15:01:15.675Z,19.74
2017-12-22T15:03:43.962Z,19.38
2017-12-22T15:06:12.242Z,19.08
2017-12-22T15:08:40.494Z,19.20
2017-12-22T15:11:08.770Z,19.20
2017-12-22T15:13:37.019Z,19.22
2017-12-22T15:16:05.289Z,20.60
2017-12-22T15:18:33.583Z,22.34
2017-12-22T15:21:02.855Z,22.04
2017-12-22T15:23:31.811Z,23.40
2017-12-22T15:26:00.095Z,22.26
2017-12-22T15:28:28.333Z,20.46
2017-12-22T15:30:56.610Z,22.26
2017-12-22T15:33:24.103Z,22.00
2017-12-22T15:35:52.390Z,21.32
2017-12-22T15:38:20.630Z,22.42
2017-12-22T15:40:48.921Z,26.12
2017-12-22T15:43:17.308Z,24.02
2017-12-22T15:45:50.234Z,27.48
2017-12-22T15:48:18.514Z,25.60
2017-12-22T15:50:50.279Z,22.52
2017-12-22T15:53:18.577Z,24.26
2017-12-22T15:55:46.878Z,21.98
2017-12-22T15:58:15.113Z,20.28
2017-12-22T16:00:44.394Z,21.84
2017-12-22T16:03:12.633Z,21.36
2017-12-22T16:05:42.830Z,22.60
2017-12-22T16:08:11.111Z,23.94
2017-12-22T16:10:42.728Z,20.88
2017-12-22T16:13:11.057Z,22.48
2017-12-22T16:15:39.298Z,20.50
2017-12-22T16:18:07.637Z,19.20
2017-12-22T16:20:35.877Z,19.98
2017-12-22T16:23:04.117Z,19.06
2017-12-22T16:25:32.388Z,18.90
2017-12-22T16:27:59.891Z,20.44
2017-12-22T16:30:28.238Z,17.60
2017-12-22T16:32:56.477Z,21.68
2017-12-22T16:35:24.717Z,17.62
2017-12-22T16:37:53.000Z,20.12
2017-12-22T16:40:21.332Z,18.52
2017-12-22T16:42:49.574Z,17.28
2017-12-22T16:45:17.823Z,17.82
2017-12-22T16:47:46.157Z,19.74
2017-12-22T16:50:14.444Z,20.24
2017-12-22T16:52:42.700Z,19.82
2017-12-22T16:55:10.971Z,17.42
2017-12-22T16:57:39.316Z,18.18
2017-12-22T17:00:07.576Z,18.98
2017-12-22T17:02:35.875Z,17.26
2017-12-22T17:05:04.151Z,17.10
2017-12-22T17:07:32.757Z,15.02
2017-12-22T17:10:04.596Z,15.98
2017-12-22T17:12:34.318Z,14.38
2017-12-22T17:15:04.094Z,14.16
2017-12-22T17:17:32.400Z,15.04
2017-12-22T17:20:02.619Z,13.76
2017-12-22T17:22:30.885Z,13.86
2017-12-22T17:24:59.221Z,15.90
2017-12-22T17:27:27.518Z,14.38
2017-12-22T17:29:55.799Z,15.46
2017-12-22T17:32:24.037Z,18.16
2017-12-22T17:34:52.376Z,19.84
2017-12-22T17:37:20.659Z,14.42
2017-12-22T17:39:48.983Z,18.86
2017-12-22T17:42:17.293Z,14.74
2017-12-22T17:44:45.652Z,22.78
2017-12-22T17:47:13.898Z,23.52
2017-12-22T17:49:42.199Z,23.12
2017-12-22T17:52:10.529Z,21.70
2017-12-22T17:54:38.863Z,26.34
2017-12-22T17:57:07.115Z,23.90
2017-12-22T17:59:35.456Z,15.42
2017-12-22T18:02:03.763Z,14.62
2017-12-22T18:04:32.913Z,13.86
2017-12-22T18:07:01.934Z,14.90
2017-12-22T18:09:30.215Z,12.80
2017-12-22T18:11:58.482Z,12.92
2017-12-22T18:14:26.730Z,13.06
2017-12-22T18:16:55.014Z,15.66
2017-12-22T18:19:23.305Z,23.06
2017-12-22T18:21:51.591Z,22.90
2017-12-22T18:24:19.917Z,17.96
2017-12-22T18:26:51.461Z,24.18
2017-12-22T18:29:19.737Z,23.36
2017-12-22T18:31:48.050Z,27.83
2017-12-22T18:34:16.376Z,23.40
2017-12-22T18:36:44.682Z,17.32
2017-12-22T18:39:13.017Z,18.58
2017-12-22T18:41:41.316Z,19.60
2017-12-22T18:44:09.666Z,17.48
2017-12-22T18:46:37.923Z,18.26
2017-12-22T18:49:06.220Z,18.50
2017-12-22T18:51:34.540Z,19.48
2017-12-22T18:54:03.383Z,20.94
2017-12-22T18:56:32.547Z,20.42
2017-12-22T18:59:00.871Z,20.08
2017-12-22T19:01:29.165Z,30.70
2017-12-22T19:03:57.499Z,30.10
2017-12-22T19:06:25.832Z,32.18
2017-12-22T19:08:54.069Z,28.06
2017-12-22T19:11:22.383Z,32.26
2017-12-22T19:13:50.713Z,27.74
2017-12-22T19:16:19.006Z,24.28
2017-12-22T19:18:47.297Z,20.90
2017-12-22T19:21:15.626Z,19.46
2017-12-22T19:23:43.913Z,19.74
2017-12-22T19:26:12.218Z,20.44
2017-12-22T19:28:40.546Z,18.54
2017-12-22T19:31:08.781Z,21.34
2017-12-22T19:33:36.294Z,21.96
2017-12-22T19:36:04.603Z,22.20
2017-12-22T19:38:33.431Z,19.46
2017-12-22T19:41:02.386Z,20.40
2017-12-22T19:43:30.708Z,22.74
2017-12-22T19:45:58.990Z,21.70
2017-12-22T19:48:27.288Z,20.24
2017-12-22T19:50:55.560Z,19.48
2017-12-22T19:53:23.853Z,20.88
2017-12-22T19:55:52.185Z,18.88
2017-12-22T19:58:20.481Z,19.84
2017-12-22T20:00:48.809Z,18.18
2017-12-22T20:03:27.076Z,21.38
2017-12-22T20:05:55.414Z,20.22
2017-12-22T20:08:23.746Z,18.92
2017-12-22T20:10:52.035Z,18.50
2017-12-22T20:13:20.352Z,17.70
2017-12-22T20:15:48.703Z,18.42
2017-12-22T20:18:16.999Z,18.66
2017-12-22T20:20:45.344Z,20.40
2017-12-22T20:23:13.671Z,20.20
2017-12-22T20:25:41.974Z,22.06
2017-12-22T20:28:10.316Z,17.48
2017-12-22T20:30:38.666Z,21.70
2017-12-22T20:33:06.971Z,19.24
2017-12-22T20:35:35.286Z,22.40
2017-12-22T20:38:03.601Z,22.32
2017-12-22T20:40:32.706Z,22.62
2017-12-22T20:43:01.021Z,23.46
2017-12-22T20:45:29.378Z,24.70
2017-12-22T20:47:57.704Z,25.32
2017-12-22T20:50:26.015Z,24.14
2017-12-22T20:52:54.366Z,21.84
2017-12-22T20:55:22.679Z,22.34
2017-12-22T20:57:50.978Z,20.64
2017-12-22T21:00:19.315Z,24.50
2017-12-22T21:02:47.653Z,21.56
2017-12-22T21:05:15.960Z,23.04
2017-12-22T21:07:44.281Z,22.32
2017-12-22T21:10:12.618Z,21.00
2017-12-22T21:12:40.915Z,23.68
2017-12-22T21:15:12.622Z,26.50
2017-12-22T21:17:40.960Z,24.14
2017-12-22T21:20:09.265Z,25.60
2017-12-22T21:22:37.613Z,21.00
2017-12-22T21:25:05.925Z,27.06
2017-12-22T21:27:34.468Z,25.58
2017-12-22T21:30:03.970Z,26.42
2017-12-22T21:32:32.876Z,26.64
2017-12-22T21:35:01.850Z,27.06
2017-12-22T21:37:30.187Z,25.76
2017-12-22T21:40:00.413Z,25.90
2017-12-22T21:42:28.709Z,24.72
2017-12-22T21:44:57.042Z,21.16
2017-12-22T21:47:24.583Z,23.32
2017-12-22T21:49:52.895Z,26.62
2017-12-22T21:52:21.208Z,24.58
2017-12-22T21:54:49.506Z,22.48
2017-12-22T21:57:17.856Z,23.96
2017-12-22T21:59:46.171Z,26.28
2017-12-22T22:02:14.465Z,25.40
2017-12-22T22:04:42.795Z,25.72
2017-12-22T22:07:11.098Z,28.60
2017-12-22T22:09:39.436Z,28.66
2017-12-22T22:12:07.732Z,27.44
2017-12-22T22:14:36.056Z,26.62
2017-12-22T22:17:04.366Z,25.36
2017-12-22T22:19:33.878Z,25.64
2017-12-22T22:22:02.594Z,23.60
2017-12-22T22:24:30.887Z,25.10
2017-12-22T22:26:59.227Z,24.74
2017-12-22T22:29:27.522Z,24.60
2017-12-22T22:31:55.852Z,23.62
2017-12-22T22:34:24.150Z,21.18
2017-12-22T22:36:52.421Z,21.08
2017-12-22T22:39:20.757Z,21.52
2017-12-22T22:41:49.047Z,21.16
2017-12-22T22:44:17.374Z,22.98
2017-12-22T22:46:45.678Z,19.92
2017-12-22T22:49:14.031Z,20.64
2017-12-22T22:51:42.333Z,19.14
2017-12-22T22:54:10.630Z,20.38
2017-12-22T22:56:38.957Z,19.28
2017-12-22T22:59:07.264Z,19.58
2017-12-22T23:01:35.595Z,20.04
2017-12-22T23:04:03.894Z,20.98
2017-12-22T23:06:33.119Z,20.24
2017-12-22T23:09:01.825Z,20.88
2017-12-22T23:11:30.150Z,18.30
2017-12-22T23:13:58.459Z,18.44
2017-12-22T23:16:26.752Z,17.30
2017-12-22T23:18:55.072Z,16.70
2017-12-22T23:21:23.392Z,19.54
2017-12-22T23:23:51.644Z,18.54
2017-12-22T23:26:19.969Z,17.10
2017-12-22T23:28:48.276Z,19.18
2017-12-22T23:31:16.578Z,19.88
2017-12-22T23:33:44.901Z,20.68
2017-12-22T23:36:13.183Z,19.52
2017-12-22T23:38:41.446Z,19.84
2017-12-22T23:41:09.746Z,19.02
2017-12-22T23:43:38.022Z,19.92
2017-12-22T23:46:06.338Z,18.74
2017-12-22T23:48:34.592Z,18.22
2017-12-22T23:51:03.726Z,20.72
2017-12-22T23:53:33.042Z,20.62
2017-12-22T23:56:01.336Z,19.50
2017-12-22T23:58:29.677Z,20.08
